sensor_id;sensor_type;location;lat;lon;timestamp;temperature;humidity
25914;DHT22;13718;50.922;5.346;2022-11-12T00:00:35;6.00;99.90
25914;DHT22;13718;50.922;5.346;2022-11-12T00:03:01;5.90;99.90
25914;DHT22;13718;50.922;5.346;2022-11-12T00:05:27;5.90;99.90
25914;DHT22;13718;50.922;5.346;2022-11-12T00:07:52;5.90;99.90
25914;DHT22;13718;50.922;5.346;2022-11-12T00:10:18;6.00;99.90
25914;DHT22;13718;50.922;5.346;2022-11-12T00:12:44;6.10;99.90
25914;DHT22;13718;50.922;5.346;2022-11-12T00:15:10;6.10;99.90
25914;DHT22;13718;50.922;5.346;2022-11-12T00:17:37;6.10;99.90
25914;DHT22;13718;50.922;5.346;2022-11-12T00:20:04;6.00;99.90
25914;DHT22;13718;50.922;5.346;2022-11-12T00:22:29;6.00;99.90
25914;DHT22;13718;50.922;5.346;2022-11-12T00:24:55;6.00;99.90
25914;DHT22;13718;50.922;5.346;2022-11-12T00:27:20;6.00;99.90
25914;DHT22;13718;50.922;5.346;2022-11-12T00:29:46;6.10;99.90
25914;DHT22;13718;50.922;5.346;2022-11-12T00:32:12;6.10;99.90
25914;DHT22;13718;50.922;5.346;2022-11-12T00:34:37;6.10;99.90
25914;DHT22;13718;50.922;5.346;2022-11-12T00:37:03;6.00;99.90
25914;DHT22;13718;50.922;5.346;2022-11-12T00:39:29;5.90;99.90
25914;DHT22;13718;50.922;5.346;2022-11-12T00:41:55;5.90;99.90
25914;DHT22;13718;50.922;5.346;2022-11-12T00:44:21;5.90;99.90
25914;DHT22;13718;50.922;5.346;2022-11-12T00:46:46;5.90;99.90
25914;DHT22;13718;50.922;5.346;2022-11-12T00:49:12;5.80;99.90
25914;DHT22;13718;50.922;5.346;2022-11-12T00:51:38;5.70;99.90
25914;DHT22;13718;50.922;5.346;2022-11-12T00:54:04;5.60;99.90
25914;DHT22;13718;50.922;5.346;2022-11-12T00:56:30;5.60;99.90
25914;DHT22;13718;50.922;5.346;2022-11-12T00:58:57;5.80;99.90
25914;DHT22;13718;50.922;5.346;2022-11-12T01:01:23;5.80;99.90
25914;DHT22;13718;50.922;5.346;2022-11-12T01:03:49;5.90;99.90
25914;DHT22;13718;50.922;5.346;2022-11-12T01:06:18;5.90;99.90
25914;DHT22;13718;50.922;5.346;2022-11-12T01:08:44;5.90;99.90
25914;DHT22;13718;50.922;5.346;2022-11-12T01:11:11;5.90;99.90
25914;DHT22;13718;50.922;5.346;2022-11-12T01:13:39;5.80;99.90
25914;DHT22;13718;50.922;5.346;2022-11-12T01:16:07;5.80;99.90
25914;DHT22;13718;50.922;5.346;2022-11-12T01:18:33;5.70;99.90
25914;DHT22;13718;50.922;5.346;2022-11-12T01:21:04;5.70;99.90
25914;DHT22;13718;50.922;5.346;2022-11-12T01:23:34;5.70;99.90
25914;DHT22;13718;50.922;5.346;2022-11-12T01:26:08;5.60;99.90
25914;DHT22;13718;50.922;5.346;2022-11-12T01:28:34;5.50;99.90
25914;DHT22;13718;50.922;5.346;2022-11-12T01:31:33;5.40;99.90
25914;DHT22;13718;50.922;5.346;2022-11-12T01:34:02;5.40;99.90
25914;DHT22;13718;50.922;5.346;2022-11-12T01:36:31;5.50;99.90
25914;DHT22;13718;50.922;5.346;2022-11-12T01:38:57;5.50;99.90
25914;DHT22;13718;50.922;5.346;2022-11-12T01:41:29;5.60;99.90
25914;DHT22;13718;50.922;5.346;2022-11-12T01:44:10;5.60;99.90
25914;DHT22;13718;50.922;5.346;2022-11-12T01:49:39;5.60;99.90
25914;DHT22;13718;50.922;5.346;2022-11-12T01:52:19;5.50;99.90
25914;DHT22;13718;50.922;5.346;2022-11-12T01:54:50;5.40;99.90
25914;DHT22;13718;50.922;5.346;2022-11-12T01:57:22;5.30;99.90
25914;DHT22;13718;50.922;5.346;2022-11-12T01:59:52;5.30;99.90
25914;DHT22;13718;50.922;5.346;2022-11-12T02:02:18;5.20;99.90
25914;DHT22;13718;50.922;5.346;2022-11-12T02:04:44;5.20;99.90
25914;DHT22;13718;50.922;5.346;2022-11-12T02:07:11;5.10;99.90
25914;DHT22;13718;50.922;5.346;2022-11-12T02:09:37;5.10;99.90
25914;DHT22;13718;50.922;5.346;2022-11-12T02:12:03;5.10;99.90
25914;DHT22;13718;50.922;5.346;2022-11-12T02:14:29;5.10;99.90
25914;DHT22;13718;50.922;5.346;2022-11-12T02:16:56;5.10;99.90
25914;DHT22;13718;50.922;5.346;2022-11-12T02:19:22;5.10;99.90
25914;DHT22;13718;50.922;5.346;2022-11-12T02:21:48;5.10;99.90
25914;DHT22;13718;50.922;5.346;2022-11-12T02:26:43;5.20;99.90
25914;DHT22;13718;50.922;5.346;2022-11-12T02:29:09;5.20;99.90
25914;DHT22;13718;50.922;5.346;2022-11-12T02:31:35;5.20;99.90
25914;DHT22;13718;50.922;5.346;2022-11-12T02:34:01;5.20;99.90
25914;DHT22;13718;50.922;5.346;2022-11-12T02:36:27;5.20;99.90
25914;DHT22;13718;50.922;5.346;2022-11-12T02:38:53;5.20;99.90
25914;DHT22;13718;50.922;5.346;2022-11-12T02:41:19;5.20;99.90
25914;DHT22;13718;50.922;5.346;2022-11-12T02:43:45;5.20;99.90
25914;DHT22;13718;50.922;5.346;2022-11-12T02:46:10;5.30;99.90
25914;DHT22;13718;50.922;5.346;2022-11-12T02:48:36;5.30;99.90
25914;DHT22;13718;50.922;5.346;2022-11-12T02:51:02;5.30;99.90
25914;DHT22;13718;50.922;5.346;2022-11-12T02:53:27;5.40;99.90
25914;DHT22;13718;50.922;5.346;2022-11-12T02:55:53;5.40;99.90
25914;DHT22;13718;50.922;5.346;2022-11-12T02:58:19;5.40;99.90
25914;DHT22;13718;50.922;5.346;2022-11-12T03:00:47;5.40;99.90
25914;DHT22;13718;50.922;5.346;2022-11-12T03:03:13;5.30;99.90
25914;DHT22;13718;50.922;5.346;2022-11-12T03:05:38;5.30;99.90
25914;DHT22;13718;50.922;5.346;2022-11-12T03:08:06;5.20;99.90
25914;DHT22;13718;50.922;5.346;2022-11-12T03:10:33;5.20;99.90
25914;DHT22;13718;50.922;5.346;2022-11-12T03:13:00;5.10;99.90
25914;DHT22;13718;50.922;5.346;2022-11-12T03:15:26;5.10;99.90
25914;DHT22;13718;50.922;5.346;2022-11-12T03:17:52;5.10;99.90
25914;DHT22;13718;50.922;5.346;2022-11-12T03:20:18;5.00;99.90
25914;DHT22;13718;50.922;5.346;2022-11-12T03:23:04;5.00;99.90
25914;DHT22;13718;50.922;5.346;2022-11-12T03:25:29;5.00;99.90
25914;DHT22;13718;50.922;5.346;2022-11-12T03:28:01;5.10;99.90
25914;DHT22;13718;50.922;5.346;2022-11-12T03:30:28;5.10;99.90
25914;DHT22;13718;50.922;5.346;2022-11-12T03:32:54;5.10;99.90
25914;DHT22;13718;50.922;5.346;2022-11-12T03:35:20;5.00;99.90
25914;DHT22;13718;50.922;5.346;2022-11-12T03:37:45;5.00;99.90
25914;DHT22;13718;50.922;5.346;2022-11-12T03:40:11;5.00;99.90
25914;DHT22;13718;50.922;5.346;2022-11-12T03:42:37;5.00;99.90
25914;DHT22;13718;50.922;5.346;2022-11-12T03:45:03;4.90;99.90
25914;DHT22;13718;50.922;5.346;2022-11-12T03:47:29;4.90;99.90
25914;DHT22;13718;50.922;5.346;2022-11-12T03:49:54;5.00;99.90
25914;DHT22;13718;50.922;5.346;2022-11-12T03:52:20;5.00;99.90
25914;DHT22;13718;50.922;5.346;2022-11-12T03:54:45;4.90;99.90
25914;DHT22;13718;50.922;5.346;2022-11-12T03:57:11;4.90;99.90
25914;DHT22;13718;50.922;5.346;2022-11-12T03:59:36;5.00;99.90
25914;DHT22;13718;50.922;5.346;2022-11-12T04:02:02;5.20;99.90
25914;DHT22;13718;50.922;5.346;2022-11-12T04:04:28;5.10;99.90
25914;DHT22;13718;50.922;5.346;2022-11-12T04:07:13;5.10;99.90
25914;DHT22;13718;50.922;5.346;2022-11-12T04:09:57;5.10;99.90
25914;DHT22;13718;50.922;5.346;2022-11-12T04:12:23;5.00;99.90
25914;DHT22;13718;50.922;5.346;2022-11-12T04:15:07;5.00;99.90
25914;DHT22;13718;50.922;5.346;2022-11-12T04:17:33;5.00;99.90
25914;DHT22;13718;50.922;5.346;2022-11-12T04:20:17;4.90;99.90
25914;DHT22;13718;50.922;5.346;2022-11-12T04:23:01;4.90;99.90
25914;DHT22;13718;50.922;5.346;2022-11-12T04:25:27;5.00;99.90
25914;DHT22;13718;50.922;5.346;2022-11-12T04:28:11;5.00;99.90
25914;DHT22;13718;50.922;5.346;2022-11-12T04:30:37;5.00;99.90
25914;DHT22;13718;50.922;5.346;2022-11-12T04:33:02;5.00;99.90
25914;DHT22;13718;50.922;5.346;2022-11-12T04:35:28;5.00;99.90
25914;DHT22;13718;50.922;5.346;2022-11-12T04:37:54;5.10;99.90
25914;DHT22;13718;50.922;5.346;2022-11-12T04:40:24;5.10;99.90
25914;DHT22;13718;50.922;5.346;2022-11-12T04:43:11;5.00;99.90
25914;DHT22;13718;50.922;5.346;2022-11-12T04:45:56;5.00;99.90
25914;DHT22;13718;50.922;5.346;2022-11-12T04:48:23;5.00;99.90
25914;DHT22;13718;50.922;5.346;2022-11-12T04:50:53;5.00;99.90
25914;DHT22;13718;50.922;5.346;2022-11-12T04:53:20;4.90;99.90
25914;DHT22;13718;50.922;5.346;2022-11-12T04:55:49;4.90;99.90
25914;DHT22;13718;50.922;5.346;2022-11-12T04:58:15;5.00;99.90
25914;DHT22;13718;50.922;5.346;2022-11-12T05:00:40;5.00;99.90
25914;DHT22;13718;50.922;5.346;2022-11-12T05:03:06;5.00;99.90
25914;DHT22;13718;50.922;5.346;2022-11-12T05:05:32;5.00;99.90
25914;DHT22;13718;50.922;5.346;2022-11-12T05:07:59;4.90;99.90
25914;DHT22;13718;50.922;5.346;2022-11-12T05:10:25;4.90;99.90
25914;DHT22;13718;50.922;5.346;2022-11-12T05:12:50;4.90;99.90
25914;DHT22;13718;50.922;5.346;2022-11-12T05:15:16;4.90;99.90
25914;DHT22;13718;50.922;5.346;2022-11-12T05:17:43;4.90;99.90
25914;DHT22;13718;50.922;5.346;2022-11-12T05:20:10;4.90;99.90
25914;DHT22;13718;50.922;5.346;2022-11-12T05:22:36;4.90;99.90
25914;DHT22;13718;50.922;5.346;2022-11-12T05:25:02;4.90;99.90
25914;DHT22;13718;50.922;5.346;2022-11-12T05:27:27;4.90;99.90
25914;DHT22;13718;50.922;5.346;2022-11-12T05:29:53;4.90;99.90
25914;DHT22;13718;50.922;5.346;2022-11-12T05:32:19;4.80;99.90
25914;DHT22;13718;50.922;5.346;2022-11-12T05:34:44;4.80;99.90
25914;DHT22;13718;50.922;5.346;2022-11-12T05:37:11;4.90;99.90
25914;DHT22;13718;50.922;5.346;2022-11-12T05:39:37;4.90;99.90
25914;DHT22;13718;50.922;5.346;2022-11-12T05:42:03;4.80;99.90
25914;DHT22;13718;50.922;5.346;2022-11-12T05:44:29;4.80;99.90
25914;DHT22;13718;50.922;5.346;2022-11-12T05:46:55;4.80;99.90
25914;DHT22;13718;50.922;5.346;2022-11-12T05:49:20;4.80;99.90
25914;DHT22;13718;50.922;5.346;2022-11-12T05:51:46;4.90;99.90
25914;DHT22;13718;50.922;5.346;2022-11-12T05:54:12;5.00;99.90
25914;DHT22;13718;50.922;5.346;2022-11-12T05:56:38;4.90;99.90
25914;DHT22;13718;50.922;5.346;2022-11-12T05:59:06;4.90;99.90
25914;DHT22;13718;50.922;5.346;2022-11-12T06:01:33;4.90;99.90
25914;DHT22;13718;50.922;5.346;2022-11-12T06:04:00;4.90;99.90
25914;DHT22;13718;50.922;5.346;2022-11-12T06:06:26;4.80;99.90
25914;DHT22;13718;50.922;5.346;2022-11-12T06:08:51;4.80;99.90
25914;DHT22;13718;50.922;5.346;2022-11-12T06:11:17;4.90;99.90
25914;DHT22;13718;50.922;5.346;2022-11-12T06:13:42;4.90;99.90
25914;DHT22;13718;50.922;5.346;2022-11-12T06:16:08;4.90;99.90
25914;DHT22;13718;50.922;5.346;2022-11-12T06:18:34;4.80;99.90
25914;DHT22;13718;50.922;5.346;2022-11-12T06:21:01;4.90;99.90
25914;DHT22;13718;50.922;5.346;2022-11-12T06:23:47;4.90;99.90
25914;DHT22;13718;50.922;5.346;2022-11-12T06:26:13;4.90;99.90
25914;DHT22;13718;50.922;5.346;2022-11-12T06:28:38;4.80;99.90
25914;DHT22;13718;50.922;5.346;2022-11-12T06:31:04;4.80;99.90
25914;DHT22;13718;50.922;5.346;2022-11-12T06:33:30;4.80;99.90
25914;DHT22;13718;50.922;5.346;2022-11-12T06:36:00;4.90;99.90
25914;DHT22;13718;50.922;5.346;2022-11-12T06:38:34;4.90;99.90
25914;DHT22;13718;50.922;5.346;2022-11-12T06:41:00;4.80;99.90
25914;DHT22;13718;50.922;5.346;2022-11-12T06:43:27;4.90;99.90
25914;DHT22;13718;50.922;5.346;2022-11-12T06:45:53;4.90;99.90
25914;DHT22;13718;50.922;5.346;2022-11-12T06:48:19;4.90;99.90
25914;DHT22;13718;50.922;5.346;2022-11-12T06:50:44;5.00;99.90
25914;DHT22;13718;50.922;5.346;2022-11-12T06:53:10;5.00;99.90
25914;DHT22;13718;50.922;5.346;2022-11-12T06:55:36;5.00;99.90
25914;DHT22;13718;50.922;5.346;2022-11-12T06:58:01;4.90;99.90
25914;DHT22;13718;50.922;5.346;2022-11-12T07:00:27;4.90;99.90
25914;DHT22;13718;50.922;5.346;2022-11-12T07:02:53;5.00;99.90
25914;DHT22;13718;50.922;5.346;2022-11-12T07:05:18;5.00;99.90
25914;DHT22;13718;50.922;5.346;2022-11-12T07:07:44;5.10;99.90
25914;DHT22;13718;50.922;5.346;2022-11-12T07:10:09;5.00;99.90
25914;DHT22;13718;50.922;5.346;2022-11-12T07:12:35;5.00;99.90
25914;DHT22;13718;50.922;5.346;2022-11-12T07:15:00;5.10;99.90
25914;DHT22;13718;50.922;5.346;2022-11-12T07:17:26;5.20;99.90
25914;DHT22;13718;50.922;5.346;2022-11-12T07:19:52;5.50;99.90
25914;DHT22;13718;50.922;5.346;2022-11-12T07:22:17;5.70;99.90
25914;DHT22;13718;50.922;5.346;2022-11-12T07:24:43;6.30;99.90
25914;DHT22;13718;50.922;5.346;2022-11-12T07:27:11;6.90;99.90
25914;DHT22;13718;50.922;5.346;2022-11-12T07:29:39;7.20;99.90
25914;DHT22;13718;50.922;5.346;2022-11-12T07:32:04;7.40;99.90
25914;DHT22;13718;50.922;5.346;2022-11-12T07:34:30;7.70;99.90
25914;DHT22;13718;50.922;5.346;2022-11-12T07:36:55;8.00;99.90
25914;DHT22;13718;50.922;5.346;2022-11-12T07:39:21;8.30;99.90
25914;DHT22;13718;50.922;5.346;2022-11-12T07:41:47;8.70;99.90
25914;DHT22;13718;50.922;5.346;2022-11-12T07:44:12;9.20;99.90
25914;DHT22;13718;50.922;5.346;2022-11-12T07:46:38;9.60;99.90
25914;DHT22;13718;50.922;5.346;2022-11-12T07:49:03;9.90;99.90
25914;DHT22;13718;50.922;5.346;2022-11-12T07:51:29;10.10;99.90
25914;DHT22;13718;50.922;5.346;2022-11-12T07:53:56;10.00;99.90
25914;DHT22;13718;50.922;5.346;2022-11-12T07:56:25;9.40;99.90
25914;DHT22;13718;50.922;5.346;2022-11-12T07:58:51;8.90;99.90
25914;DHT22;13718;50.922;5.346;2022-11-12T08:01:24;8.60;99.90
25914;DHT22;13718;50.922;5.346;2022-11-12T08:03:52;8.30;99.90
25914;DHT22;13718;50.922;5.346;2022-11-12T08:06:18;8.10;99.90
25914;DHT22;13718;50.922;5.346;2022-11-12T08:08:44;8.00;99.90
25914;DHT22;13718;50.922;5.346;2022-11-12T08:11:09;7.80;99.90
25914;DHT22;13718;50.922;5.346;2022-11-12T08:13:35;7.70;99.90
25914;DHT22;13718;50.922;5.346;2022-11-12T08:16:00;7.70;99.90
25914;DHT22;13718;50.922;5.346;2022-11-12T08:18:26;7.70;99.90
25914;DHT22;13718;50.922;5.346;2022-11-12T08:20:58;7.70;99.90
25914;DHT22;13718;50.922;5.346;2022-11-12T08:23:24;7.70;99.90
25914;DHT22;13718;50.922;5.346;2022-11-12T08:25:49;7.70;99.90
25914;DHT22;13718;50.922;5.346;2022-11-12T08:28:15;7.70;99.90
25914;DHT22;13718;50.922;5.346;2022-11-12T08:30:40;7.80;99.90
25914;DHT22;13718;50.922;5.346;2022-11-12T08:33:06;7.80;99.90
25914;DHT22;13718;50.922;5.346;2022-11-12T08:35:39;8.00;99.90
25914;DHT22;13718;50.922;5.346;2022-11-12T08:38:05;8.20;99.90
25914;DHT22;13718;50.922;5.346;2022-11-12T08:40:32;8.40;99.90
25914;DHT22;13718;50.922;5.346;2022-11-12T08:43:00;8.60;99.90
25914;DHT22;13718;50.922;5.346;2022-11-12T08:45:27;8.60;99.90
25914;DHT22;13718;50.922;5.346;2022-11-12T08:47:58;8.70;99.90
25914;DHT22;13718;50.922;5.346;2022-11-12T08:50:24;8.70;99.90
25914;DHT22;13718;50.922;5.346;2022-11-12T08:52:49;8.80;99.90
25914;DHT22;13718;50.922;5.346;2022-11-12T08:55:15;8.80;99.90
25914;DHT22;13718;50.922;5.346;2022-11-12T08:57:42;8.90;99.90
25914;DHT22;13718;50.922;5.346;2022-11-12T09:00:11;9.00;99.90
25914;DHT22;13718;50.922;5.346;2022-11-12T09:02:40;9.20;99.90
25914;DHT22;13718;50.922;5.346;2022-11-12T09:05:06;9.40;99.90
25914;DHT22;13718;50.922;5.346;2022-11-12T09:07:31;9.70;99.90
25914;DHT22;13718;50.922;5.346;2022-11-12T09:09:57;9.80;99.90
25914;DHT22;13718;50.922;5.346;2022-11-12T09:12:26;9.80;99.90
25914;DHT22;13718;50.922;5.346;2022-11-12T09:14:52;9.90;99.90
25914;DHT22;13718;50.922;5.346;2022-11-12T09:17:17;9.80;99.90
25914;DHT22;13718;50.922;5.346;2022-11-12T09:19:43;9.90;99.90
25914;DHT22;13718;50.922;5.346;2022-11-12T09:22:08;10.00;99.90
25914;DHT22;13718;50.922;5.346;2022-11-12T09:24:36;10.10;99.90
25914;DHT22;13718;50.922;5.346;2022-11-12T09:27:02;10.20;99.90
25914;DHT22;13718;50.922;5.346;2022-11-12T09:29:28;10.30;99.90
25914;DHT22;13718;50.922;5.346;2022-11-12T09:31:53;10.20;99.90
25914;DHT22;13718;50.922;5.346;2022-11-12T09:34:19;10.30;99.90
25914;DHT22;13718;50.922;5.346;2022-11-12T09:36:44;10.60;99.90
25914;DHT22;13718;50.922;5.346;2022-11-12T09:39:10;10.60;99.90
25914;DHT22;13718;50.922;5.346;2022-11-12T09:41:40;10.50;99.90
25914;DHT22;13718;50.922;5.346;2022-11-12T09:44:12;10.40;99.90
25914;DHT22;13718;50.922;5.346;2022-11-12T09:46:58;10.40;99.90
25914;DHT22;13718;50.922;5.346;2022-11-12T09:49:31;10.50;99.90
25914;DHT22;13718;50.922;5.346;2022-11-12T09:52:09;10.50;99.90
25914;DHT22;13718;50.922;5.346;2022-11-12T09:54:39;10.60;99.90
25914;DHT22;13718;50.922;5.346;2022-11-12T09:57:10;10.70;99.90
25914;DHT22;13718;50.922;5.346;2022-11-12T09:59:40;10.80;99.90
25914;DHT22;13718;50.922;5.346;2022-11-12T10:02:48;11.00;99.90
25914;DHT22;13718;50.922;5.346;2022-11-12T10:05:33;11.20;99.90
25914;DHT22;13718;50.922;5.346;2022-11-12T10:13:24;11.90;99.90
25914;DHT22;13718;50.922;5.346;2022-11-12T10:16:18;12.00;99.90
25914;DHT22;13718;50.922;5.346;2022-11-12T10:19:27;12.10;99.90
25914;DHT22;13718;50.922;5.346;2022-11-12T10:24:41;12.30;99.90
25914;DHT22;13718;50.922;5.346;2022-11-12T10:27:21;12.40;99.90
25914;DHT22;13718;50.922;5.346;2022-11-12T10:29:58;12.50;99.90
25914;DHT22;13718;50.922;5.346;2022-11-12T10:32:24;12.60;99.90
25914;DHT22;13718;50.922;5.346;2022-11-12T10:34:50;12.70;99.90
25914;DHT22;13718;50.922;5.346;2022-11-12T10:37:40;12.70;99.90
25914;DHT22;13718;50.922;5.346;2022-11-12T10:40:35;12.80;99.90
25914;DHT22;13718;50.922;5.346;2022-11-12T10:45:28;13.00;99.90
25914;DHT22;13718;50.922;5.346;2022-11-12T10:47:55;13.00;99.90
25914;DHT22;13718;50.922;5.346;2022-11-12T10:50:40;13.00;99.90
25914;DHT22;13718;50.922;5.346;2022-11-12T10:53:09;13.10;99.90
25914;DHT22;13718;50.922;5.346;2022-11-12T10:55:37;13.20;99.90
25914;DHT22;13718;50.922;5.346;2022-11-12T11:00:36;13.40;99.90
25914;DHT22;13718;50.922;5.346;2022-11-12T11:03:22;13.70;99.90
25914;DHT22;13718;50.922;5.346;2022-11-12T11:08:45;14.10;99.90
25914;DHT22;13718;50.922;5.346;2022-11-12T11:11:29;14.10;99.90
25914;DHT22;13718;50.922;5.346;2022-11-12T11:13:58;14.10;99.90
25914;DHT22;13718;50.922;5.346;2022-11-12T11:16:54;14.30;99.90
25914;DHT22;13718;50.922;5.346;2022-11-12T11:19:20;14.50;99.90
25914;DHT22;13718;50.922;5.346;2022-11-12T11:24:38;14.50;99.90
25914;DHT22;13718;50.922;5.346;2022-11-12T11:27:28;14.60;99.90
25914;DHT22;13718;50.922;5.346;2022-11-12T11:38:56;14.80;99.90
25914;DHT22;13718;50.922;5.346;2022-11-12T11:57:49;15.10;99.90
25914;DHT22;13718;50.922;5.346;2022-11-12T12:00:21;15.10;99.90
25914;DHT22;13718;50.922;5.346;2022-11-12T12:03:16;15.10;99.90
25914;DHT22;13718;50.922;5.346;2022-11-12T12:08:40;15.40;99.90
25914;DHT22;13718;50.922;5.346;2022-11-12T12:11:41;15.40;99.90
25914;DHT22;13718;50.922;5.346;2022-11-12T12:17:16;15.40;99.90
25914;DHT22;13718;50.922;5.346;2022-11-12T12:22:45;15.70;99.90
25914;DHT22;13718;50.922;5.346;2022-11-12T12:25:58;15.60;99.90
25914;DHT22;13718;50.922;5.346;2022-11-12T12:30:48;16.40;99.90
25914;DHT22;13718;50.922;5.346;2022-11-12T12:33:33;16.40;99.90
25914;DHT22;13718;50.922;5.346;2022-11-12T12:36:05;16.30;99.90
25914;DHT22;13718;50.922;5.346;2022-11-12T12:38:54;16.20;99.90
25914;DHT22;13718;50.922;5.346;2022-11-12T12:41:46;16.00;99.90
25914;DHT22;13718;50.922;5.346;2022-11-12T12:44:14;16.20;99.90
25914;DHT22;13718;50.922;5.346;2022-11-12T12:46:44;16.20;99.90
25914;DHT22;13718;50.922;5.346;2022-11-12T12:49:17;16.20;99.90
25914;DHT22;13718;50.922;5.346;2022-11-12T12:51:44;16.10;99.90
25914;DHT22;13718;50.922;5.346;2022-11-12T12:57:42;16.20;99.90
25914;DHT22;13718;50.922;5.346;2022-11-12T13:02:51;16.30;99.90
25914;DHT22;13718;50.922;5.346;2022-11-12T13:07:50;16.20;99.90
25914;DHT22;13718;50.922;5.346;2022-11-12T13:15:51;16.20;99.90
25914;DHT22;13718;50.922;5.346;2022-11-12T13:21:15;15.70;99.90
25914;DHT22;13718;50.922;5.346;2022-11-12T13:24:08;15.70;99.90
25914;DHT22;13718;50.922;5.346;2022-11-12T13:26:56;15.70;99.90
25914;DHT22;13718;50.922;5.346;2022-11-12T13:42:57;15.60;99.90
25914;DHT22;13718;50.922;5.346;2022-11-12T13:45:27;15.50;99.90
25914;DHT22;13718;50.922;5.346;2022-11-12T13:47:53;15.40;99.90
25914;DHT22;13718;50.922;5.346;2022-11-12T13:50:21;15.40;99.90
25914;DHT22;13718;50.922;5.346;2022-11-12T13:52:48;15.50;99.90
25914;DHT22;13718;50.922;5.346;2022-11-12T13:55:16;15.50;99.90
25914;DHT22;13718;50.922;5.346;2022-11-12T13:57:56;15.40;99.90
25914;DHT22;13718;50.922;5.346;2022-11-12T14:00:28;15.30;99.90
25914;DHT22;13718;50.922;5.346;2022-11-12T14:03:05;15.30;99.90
25914;DHT22;13718;50.922;5.346;2022-11-12T14:05:32;15.30;99.90
25914;DHT22;13718;50.922;5.346;2022-11-12T14:08:14;15.40;99.90
25914;DHT22;13718;50.922;5.346;2022-11-12T14:16:01;15.90;99.90
25914;DHT22;13718;50.922;5.346;2022-11-12T14:21:04;15.80;99.90
25914;DHT22;13718;50.922;5.346;2022-11-12T14:23:30;15.70;99.90
25914;DHT22;13718;50.922;5.346;2022-11-12T14:25:56;15.60;99.90
25914;DHT22;13718;50.922;5.346;2022-11-12T14:28:33;15.50;99.90
25914;DHT22;13718;50.922;5.346;2022-11-12T14:31:00;15.30;99.90
25914;DHT22;13718;50.922;5.346;2022-11-12T14:33:28;15.30;99.90
25914;DHT22;13718;50.922;5.346;2022-11-12T14:35:59;15.30;99.90
25914;DHT22;13718;50.922;5.346;2022-11-12T14:38:45;15.30;99.90
25914;DHT22;13718;50.922;5.346;2022-11-12T14:41:23;15.30;99.90
25914;DHT22;13718;50.922;5.346;2022-11-12T14:43:54;15.30;99.90
25914;DHT22;13718;50.922;5.346;2022-11-12T14:46:26;15.20;99.90
25914;DHT22;13718;50.922;5.346;2022-11-12T14:51:54;15.40;99.90
25914;DHT22;13718;50.922;5.346;2022-11-12T14:54:30;15.60;99.90
25914;DHT22;13718;50.922;5.346;2022-11-12T14:56:58;15.70;99.90
25914;DHT22;13718;50.922;5.346;2022-11-12T14:59:25;15.60;99.90
25914;DHT22;13718;50.922;5.346;2022-11-12T15:02:18;15.50;99.90
25914;DHT22;13718;50.922;5.346;2022-11-12T15:04:51;15.40;99.90
25914;DHT22;13718;50.922;5.346;2022-11-12T15:07:26;15.20;99.90
25914;DHT22;13718;50.922;5.346;2022-11-12T15:09:52;15.10;99.90
25914;DHT22;13718;50.922;5.346;2022-11-12T15:12:23;15.00;99.90
25914;DHT22;13718;50.922;5.346;2022-11-12T15:14:51;14.80;99.90
25914;DHT22;13718;50.922;5.346;2022-11-12T15:17:30;14.70;99.90
25914;DHT22;13718;50.922;5.346;2022-11-12T15:20:04;14.50;99.90
25914;DHT22;13718;50.922;5.346;2022-11-12T15:22:31;14.40;99.90
25914;DHT22;13718;50.922;5.346;2022-11-12T15:25:09;14.40;99.90
25914;DHT22;13718;50.922;5.346;2022-11-12T15:30:26;14.20;99.90
25914;DHT22;13718;50.922;5.346;2022-11-12T15:35:34;14.00;99.90
25914;DHT22;13718;50.922;5.346;2022-11-12T15:38:04;13.90;99.90
25914;DHT22;13718;50.922;5.346;2022-11-12T15:40:32;13.90;99.90
25914;DHT22;13718;50.922;5.346;2022-11-12T15:43:37;13.90;99.90
25914;DHT22;13718;50.922;5.346;2022-11-12T15:46:14;14.10;99.90
25914;DHT22;13718;50.922;5.346;2022-11-12T15:48:40;14.10;99.90
25914;DHT22;13718;50.922;5.346;2022-11-12T15:51:09;14.00;99.90
25914;DHT22;13718;50.922;5.346;2022-11-12T15:53:34;13.90;99.90
25914;DHT22;13718;50.922;5.346;2022-11-12T15:56:00;13.90;99.90
25914;DHT22;13718;50.922;5.346;2022-11-12T15:58:34;13.80;99.90
25914;DHT22;13718;50.922;5.346;2022-11-12T16:01:02;13.70;99.90
25914;DHT22;13718;50.922;5.346;2022-11-12T16:03:28;13.70;99.90
25914;DHT22;13718;50.922;5.346;2022-11-12T16:05:54;13.80;99.90
25914;DHT22;13718;50.922;5.346;2022-11-12T16:08:19;13.90;99.90
25914;DHT22;13718;50.922;5.346;2022-11-12T16:10:46;13.70;99.90
25914;DHT22;13718;50.922;5.346;2022-11-12T16:13:24;13.50;99.90
25914;DHT22;13718;50.922;5.346;2022-11-12T16:15:50;13.30;99.90
25914;DHT22;13718;50.922;5.346;2022-11-12T16:18:16;13.10;99.90
25914;DHT22;13718;50.922;5.346;2022-11-12T16:20:42;13.00;99.90
25914;DHT22;13718;50.922;5.346;2022-11-12T16:23:07;12.90;99.90
25914;DHT22;13718;50.922;5.346;2022-11-12T16:25:35;12.90;99.90
25914;DHT22;13718;50.922;5.346;2022-11-12T16:28:01;13.00;99.90
25914;DHT22;13718;50.922;5.346;2022-11-12T16:30:31;12.90;99.90
25914;DHT22;13718;50.922;5.346;2022-11-12T16:32:58;12.90;99.90
25914;DHT22;13718;50.922;5.346;2022-11-12T16:35:25;12.60;99.90
25914;DHT22;13718;50.922;5.346;2022-11-12T16:37:53;12.40;99.90
25914;DHT22;13718;50.922;5.346;2022-11-12T16:40:24;12.30;99.90
25914;DHT22;13718;50.922;5.346;2022-11-12T16:42:50;12.40;99.90
25914;DHT22;13718;50.922;5.346;2022-11-12T16:45:19;12.40;99.90
25914;DHT22;13718;50.922;5.346;2022-11-12T16:47:47;12.40;99.90
25914;DHT22;13718;50.922;5.346;2022-11-12T16:50:15;12.50;99.90
25914;DHT22;13718;50.922;5.346;2022-11-12T16:52:40;12.50;99.90
25914;DHT22;13718;50.922;5.346;2022-11-12T16:55:06;12.30;99.90
25914;DHT22;13718;50.922;5.346;2022-11-12T16:57:32;12.10;99.90
25914;DHT22;13718;50.922;5.346;2022-11-12T16:59:58;12.10;99.90
25914;DHT22;13718;50.922;5.346;2022-11-12T17:02:23;12.10;99.90
25914;DHT22;13718;50.922;5.346;2022-11-12T17:04:49;12.00;99.90
25914;DHT22;13718;50.922;5.346;2022-11-12T17:07:15;11.80;99.90
25914;DHT22;13718;50.922;5.346;2022-11-12T17:09:41;11.70;99.90
25914;DHT22;13718;50.922;5.346;2022-11-12T17:12:07;11.60;99.90
25914;DHT22;13718;50.922;5.346;2022-11-12T17:14:34;11.70;99.90
25914;DHT22;13718;50.922;5.346;2022-11-12T17:16:59;11.70;99.90
25914;DHT22;13718;50.922;5.346;2022-11-12T17:19:25;11.70;99.90
25914;DHT22;13718;50.922;5.346;2022-11-12T17:21:51;11.80;99.90
25914;DHT22;13718;50.922;5.346;2022-11-12T17:24:16;11.90;99.90
25914;DHT22;13718;50.922;5.346;2022-11-12T17:26:43;12.00;99.90
25914;DHT22;13718;50.922;5.346;2022-11-12T17:29:09;12.00;99.90
25914;DHT22;13718;50.922;5.346;2022-11-12T17:31:35;11.90;99.90
25914;DHT22;13718;50.922;5.346;2022-11-12T17:34:03;11.70;99.90
25914;DHT22;13718;50.922;5.346;2022-11-12T17:36:29;11.60;99.90
25914;DHT22;13718;50.922;5.346;2022-11-12T17:38:57;11.50;99.90
25914;DHT22;13718;50.922;5.346;2022-11-12T17:41:24;11.50;99.90